Time,TemperatureF,DewpointF,PressureIn,WindDirection,WindDirectionDegrees,WindSpeedMPH,WindSpeedGustMPH,Humidity,HourlyPrecipIn,Conditions,Clouds,dailyrainin,SolarRadiationWatts/m^2,SoftwareType,DateUTC
2013-07-06 00:00:00,57.2,53.3,29.65,SE,136,8.8,-999.0,87,0.00,,,0.00,0.00,,2013-07-06 07:00:00,
2013-07-06 00:10:00,57.3,53.5,29.66,SSE,155,6.8,-999.0,87,0.00,,,0.00,0.24,,2013-07-06 07:10:00,
2013-07-06 00:15:00,57.4,53.5,29.65,WSW,252,7.8,-999.0,87,0.00,,,0.00,0.00,,2013-07-06 07:15:00,
2013-07-06 00:20:00,57.0,53.2,29.66,SSE,147,4.9,-999.0,87,0.00,,,0.00,0.43,,2013-07-06 07:20:00,
2013-07-06 00:25:00,57.1,53.2,29.66,South,186,8.0,-999.0,87,0.00,,,0.00,0.00,,2013-07-06 07:25:00,
2013-07-06 00:30:00,57.1,53.4,29.65,South,189,8.3,-999.0,87,0.00,,,0.00,0.00,,2013-07-06 07:30:00,
2013-07-06 00:35:00,57.3,53.6,29.65,SSW,192,4.0,-999.0,87,0.00,,,0.00,0.67,,2013-07-06 07:35:00,
2013-07-06 00:40:00,57.1,53.2,29.65,SSW,192,8.8,-999.0,87,0.00,,,0.00,0.00,,2013-07-06 07:40:00,
2013-07-06 00:45:00,57.2,53.4,29.65,SSW,200,3.7,-999.0,87,0.00,,,0.00,0.43,,2013-07-06 07:45:00,
2013-07-06 00:50:00,57.4,53.6,29.65,South,181,3.7,-999.0,87,0.00,,,0.00,0.00,,2013-07-06 07:50:00,
2013-07-06 00:56:00,57.2,53.3,29.65,South,181,3.4,-999.0,87,0.00,,,0.00,0.00,,2013-07-06 07:56:00,
2013-07-06 01:05:00,57.2,53.5,29.66,South,188,3.4,-999.0,87,0.00,,,0.00,0.00,,2013-07-06 08:05:00,
2013-07-06 01:10:00,56.9,53.2,29.66,South,185,4.7,-999.0,87,0.00,,,0.00,0.49,,2013-07-06 08:10:00,
2013-07-06 01:15:00,57.1,53.3,29.65,ESE,110,10.5,-999.0,87,0.00,,,0.00,0.00,,2013-07-06 08:15:00,
2013-07-06 01:20:00,57.1,53.6,29.64,SSW,213,2.8,-999.0,88,0.00,,,0.00,0.00,,2013-07-06 08:20:00,
2013-07-06 01:25:00,57.0,53.4,29.65,South,188,5.8,-999.0,88,0.00,,,0.00,0.00,,2013-07-06 08:25:00,
2013-07-06 01:30:00,57.1,53.6,29.65,South,187,6.4,-999.0,88,0.00,,,0.00,0.24,,2013-07-06 08:30:00,
2013-07-06 01:35:00,56.8,53.3,29.65,SSE,151,12.8,-999.0,88,0.00,,,0.00,0.00,,2013-07-06 08:35:00,
2013-07-06 01:40:00,56.9,53.5,29.65,ESE,119,8.0,-999.0,88,0.00,,,0.00,0.43,,2013-07-06 08:40:00,
2013-07-06 01:45:00,56.9,53.5,29.65,SSE,160,4.5,-999.0,88,0.00,,,0.00,0.00,,2013-07-06 08:45:00,
2013-07-06 01:50:00,57.0,53.7,29.65,South,183,5.8,-999.0,89,0.00,,,0.00,0.43,,2013-07-06 08:50:00,
2013-07-06 01:55:00,57.0,53.6,29.65,SSW,202,6.9,-999.0,88,0.00,,,0.00,0.06,,2013-07-06 08:55:00,
2013-07-06 02:00:00,56.9,53.7,29.65,SSW,211,3.5,-999.0,89,0.00,,,0.00,0.06,,2013-07-06 09:00:00,
2013-07-06 02:05:00,56.8,53.6,29.65,SSE,163,4.7,-999.0,89,0.00,,,0.00,0.00,,2013-07-06 09:05:00,
2013-07-06 02:10:00,56.9,53.8,29.66,South,180,5.2,-999.0,89,0.00,,,0.00,0.00,,2013-07-06 09:10:00,
2013-07-06 02:15:00,56.9,53.9,29.64,SSW,197,4.2,-999.0,90,0.00,,,0.00,0.73,,2013-07-06 09:15:00,
2013-07-06 02:20:00,56.9,54.0,29.66,SW,218,3.2,-999.0,90,0.00,,,0.00,0.00,,2013-07-06 09:20:00,
2013-07-06 02:25:00,56.7,53.7,29.65,South,172,7.8,-999.0,90,0.00,,,0.00,0.49,,2013-07-06 09:25:00,
2013-07-06 02:30:00,56.8,54.0,29.65,SE,138,8.0,-999.0,90,0.00,,,0.00,0.55,,2013-07-06 09:30:00,
2013-07-06 02:35:00,56.9,54.2,29.65,South,186,2.3,-999.0,91,0.00,,,0.00,0.24,,2013-07-06 09:35:00,
2013-07-06 02:40:00,56.7,54.0,29.65,SE,138,7.1,-999.0,91,0.00,,,0.00,0.24,,2013-07-06 09:40:00,
2013-07-06 02:45:00,56.8,54.2,29.66,South,179,6.3,-999.0,91,0.00,,,0.00,0.00,,2013-07-06 09:45:00,
2013-07-06 02:50:00,57.0,54.4,29.65,SSW,195,0.0,-999.0,91,0.00,,,0.00,0.00,,2013-07-06 09:50:00,
2013-07-06 02:55:00,56.6,54.0,29.65,South,171,6.4,-999.0,91,0.00,,,0.00,1.47,,2013-07-06 09:55:00,
2013-07-06 03:00:00,56.6,54.2,29.66,SSE,165,8.8,-999.0,91,0.00,,,0.00,0.00,,2013-07-06 10:00:00,
2013-07-06 03:05:00,56.8,54.5,29.65,South,169,4.4,-999.0,92,0.00,,,0.00,0.55,,2013-07-06 10:05:00,
2013-07-06 03:10:00,56.8,54.5,29.64,SW,217,5.2,-999.0,92,0.00,,,0.00,0.00,,2013-07-06 10:10:00,
2013-07-06 03:15:00,57.0,54.7,29.66,South,185,4.7,-999.0,92,0.00,,,0.00,0.24,,2013-07-06 10:15:00,
2013-07-06 03:20:00,56.8,54.4,29.65,South,183,2.8,-999.0,92,0.00,,,0.00,0.24,,2013-07-06 10:20:00,
2013-07-06 03:30:00,56.6,54.4,29.65,SSE,158,3.5,-999.0,92,0.00,,,0.00,0.00,,2013-07-06 10:30:00,
2013-07-06 03:35:00,56.6,54.4,29.65,SSW,196,4.0,-999.0,92,0.00,,,0.00,0.73,,2013-07-06 10:35:00,
2013-07-06 03:40:00,56.6,54.5,29.66,South,171,3.9,-999.0,92,0.00,,,0.00,0.00,,2013-07-06 10:40:00,
2013-07-06 03:45:00,56.7,54.5,29.66,South,191,8.5,-999.0,92,0.00,,,0.00,0.00,,2013-07-06 10:45:00,
2013-07-06 03:50:00,56.8,54.6,29.65,South,185,6.4,-999.0,92,0.00,,,0.00,0.00,,2013-07-06 10:50:00,
2013-07-06 03:55:00,57.0,55.0,29.66,SE,146,1.0,-999.0,93,0.00,,,0.00,0.00,,2013-07-06 10:55:00,
2013-07-06 04:00:00,56.6,54.4,29.65,South,183,8.8,-999.0,92,0.00,,,0.00,0.00,,2013-07-06 11:00:00,
2013-07-06 04:05:00,56.8,54.6,29.65,SSW,195,5.2,-999.0,92,0.00,,,0.00,0.49,,2013-07-06 11:05:00,
2013-07-06 04:10:00,56.6,54.5,29.66,South,176,4.4,-999.0,92,0.00,,,0.00,0.00,,2013-07-06 11:10:00,
2013-07-06 04:15:00,56.7,54.7,29.66,SE,140,3.9,-999.0,93,0.00,,,0.00,0.00,,2013-07-06 11:15:00,
2013-07-06 04:20:00,56.6,54.5,29.65,SW,221,6.8,-999.0,93,0.00,,,0.00,0.49,,2013-07-06 11:20:00,
2013-07-06 04:25:00,56.6,54.7,29.66,South,190,6.9,-999.0,93,0.00,,,0.00,0.67,,2013-07-06 11:25:00,
2013-07-06 04:30:00,56.6,54.5,29.66,SSE,152,9.5,-999.0,93,0.00,,,0.00,0.49,,2013-07-06 11:30:00,
2013-07-06 04:35:00,56.6,54.6,29.66,SSW,208,8.0,-999.0,93,0.00,,,0.00,0.73,,2013-07-06 11:35:00,
2013-07-06 04:40:00,56.7,54.7,29.66,South,189,2.7,-999.0,93,0.00,,,0.00,0.49,,2013-07-06 11:40:00,
2013-07-06 04:45:00,56.8,54.6,29.65,SSW,192,2.5,-999.0,93,0.00,,,0.00,0.98,,2013-07-06 11:45:00,
2013-07-06 04:50:00,56.8,54.6,29.66,South,175,7.6,-999.0,92,0.00,,,0.00,0.00,,2013-07-06 11:50:00,
2013-07-06 04:55:00,56.8,54.5,29.67,SE,140,2.7,-999.0,92,0.00,,,0.00,0.00,,2013-07-06 11:55:00,
2013-07-06 05:00:00,56.7,54.5,29.65,South,191,11.4,-999.0,92,0.00,,,0.00,0.24,,2013-07-06 12:00:00,
2013-07-06 05:05:00,56.8,54.6,29.66,SE,142,3.0,-999.0,92,0.00,,,0.00,0.43,,2013-07-06 12:05:00,
2013-07-06 05:10:00,56.9,54.7,29.65,SW,215,2.5,-999.0,92,0.00,,,0.00,0.98,,2013-07-06 12:10:00,
2013-07-06 05:15:00,56.9,54.6,29.66,South,185,8.1,-999.0,92,0.00,,,0.00,0.98,,2013-07-06 12:15:00,
2013-07-06 05:20:00,56.9,54.5,29.66,ESE,119,5.9,-999.0,92,0.00,,,0.00,0.00,,2013-07-06 12:20:00,
2013-07-06 05:25:00,56.9,54.5,29.66,SW,218,10.0,-999.0,92,0.00,,,0.00,0.00,,2013-07-06 12:25:00,
2013-07-06 05:30:00,56.9,54.6,29.67,South,188,5.1,-999.0,92,0.00,,,0.00,0.73,,2013-07-06 12:30:00,
2013-07-06 05:35:00,56.7,54.4,29.66,SSE,153,8.0,-999.0,92,0.00,,,0.00,0.00,,2013-07-06 12:35:00,
2013-07-06 05:45:00,56.7,54.5,29.66,SSW,192,5.9,-999.0,92,0.00,,,0.00,1.22,,2013-07-06 12:45:00,
2013-07-06 05:50:00,56.8,54.7,29.65,SSE,165,5.8,-999.0,93,0.00,,,0.00,0.79,,2013-07-06 12:50:00,
2013-07-06 05:55:00,56.6,54.6,29.66,South,173,7.8,-999.0,93,0.00,,,0.00,1.65,,2013-07-06 12:55:00,
2013-07-06 06:00:00,56.6,54.5,29.67,SSE,150,6.4,-999.0,93,0.00,,,0.00,1.53,,2013-07-06 13:00:00,
2013-07-06 06:05:00,56.6,54.5,29.67,East,84,5.6,-999.0,93,0.00,,,0.00,2.50,,2013-07-06 13:05:00,
2013-07-06 06:10:00,56.7,54.6,29.66,SSW,198,4.7,-999.0,93,0.00,,,0.00,5.13,,2013-07-06 13:10:00,
2013-07-06 06:15:00,56.7,54.6,29.67,ESE,112,5.9,-999.0,93,0.00,,,0.00,6.59,,2013-07-06 13:15:00,
2013-07-06 06:20:00,56.7,54.7,29.67,SE,143,5.1,-999.0,93,0.00,,,0.00,7.08,,2013-07-06 13:20:00,
2013-07-06 06:25:00,56.6,54.5,29.67,South,180,7.6,-999.0,93,0.00,,,0.00,8.79,,2013-07-06 13:25:00,
2013-07-06 06:30:00,56.8,54.8,29.66,SSE,160,3.2,-999.0,93,0.00,,,0.00,9.95,,2013-07-06 13:30:00,
2013-07-06 06:35:00,56.8,54.7,29.68,WSW,241,5.1,-999.0,93,0.00,,,0.00,13.74,,2013-07-06 13:35:00,
2013-07-06 06:40:00,56.9,54.8,29.67,SW,224,7.6,-999.0,92,0.00,,,0.00,15.57,,2013-07-06 13:40:00,
2013-07-06 06:45:00,57.1,54.9,29.68,SSE,159,6.6,-999.0,92,0.00,,,0.00,16.12,,2013-07-06 13:45:00,
2013-07-06 06:50:00,56.7,54.5,29.67,SSW,199,7.8,-999.0,92,0.00,,,0.00,17.40,,2013-07-06 13:50:00,
2013-07-06 06:55:00,57.0,54.9,29.68,SSW,200,3.9,-999.0,93,0.00,,,0.00,19.47,,2013-07-06 13:55:00,
2013-07-06 07:00:00,57.0,55.0,29.68,SSE,155,2.0,-999.0,93,0.00,,,0.00,22.95,,2013-07-06 14:00:00,
2013-07-06 07:05:00,56.9,54.8,29.67,SSE,161,5.6,-999.0,93,0.00,,,0.00,24.24,,2013-07-06 14:05:00,
2013-07-06 07:10:00,57.5,55.3,29.68,SW,230,0.0,-999.0,92,0.00,,,0.00,33.46,,2013-07-06 14:10:00,
2013-07-06 07:15:00,56.9,54.6,29.68,SSW,200,4.2,-999.0,92,0.00,,,0.00,25.52,,2013-07-06 14:15:00,
2013-07-06 07:20:00,57.1,54.9,29.67,South,186,0.0,-999.0,92,0.00,,,0.00,35.10,,2013-07-06 14:20:00,
2013-07-06 07:25:00,56.9,54.4,29.67,SSW,206,6.3,-999.0,92,0.00,,,0.00,36.26,,2013-07-06 14:25:00,
2013-07-06 07:30:00,56.9,54.6,29.67,SSE,160,3.7,-999.0,92,0.00,,,0.00,34.49,,2013-07-06 14:30:00,
2013-07-06 07:35:00,57.0,54.5,29.68,SSW,195,6.1,-999.0,91,0.00,,,0.00,38.83,,2013-07-06 14:35:00,
2013-07-06 07:40:00,56.9,54.4,29.67,SSE,166,5.6,-999.0,91,0.00,,,0.00,43.77,,2013-07-06 14:40:00,
2013-07-06 07:45:00,57.0,54.4,29.68,SSW,213,10.4,-999.0,91,0.00,,,0.00,50.55,,2013-07-06 14:45:00,
2013-07-06 07:50:00,57.2,54.7,29.67,SSW,212,4.7,-999.0,92,0.00,,,0.00,48.41,,2013-07-06 14:50:00,
2013-07-06 07:55:00,57.3,54.9,29.68,South,177,4.7,-999.0,92,0.00,,,0.00,61.48,,2013-07-06 14:55:00,
2013-07-06 08:00:00,57.2,54.9,29.68,SSE,149,5.2,-999.0,92,0.00,,,0.00,63.25,,2013-07-06 15:00:00,
2013-07-06 08:10:00,57.6,55.0,29.68,SSE,165,3.5,-999.0,91,0.00,,,0.00,62.94,,2013-07-06 15:10:00,
2013-07-06 08:15:00,57.8,55.3,29.69,South,190,3.4,-999.0,91,0.00,,,0.00,60.13,,2013-07-06 15:15:00,
2013-07-06 08:20:00,57.4,54.7,29.69,South,187,4.4,-999.0,91,0.00,,,0.00,63.55,,2013-07-06 15:20:00,
2013-07-06 08:25:00,57.1,54.5,29.69,South,191,4.5,-999.0,91,0.00,,,0.00,70.82,,2013-07-06 15:25:00,
2013-07-06 08:30:00,57.3,54.7,29.69,SW,227,6.6,-999.0,91,0.00,,,0.00,82.30,,2013-07-06 15:30:00,
2013-07-06 08:35:00,57.7,55.0,29.69,WNW,296,5.6,-999.0,91,0.00,,,0.00,92.86,,2013-07-06 15:35:00,
2013-07-06 08:40:00,57.9,55.0,29.69,SSE,156,3.0,-999.0,90,0.00,,,0.00,102.08,,2013-07-06 15:40:00,
2013-07-06 08:45:00,57.9,54.7,29.69,South,177,6.1,-999.0,89,0.00,,,0.00,109.71,,2013-07-06 15:45:00,
2013-07-06 08:50:00,57.9,54.3,29.70,SSE,163,7.1,-999.0,88,0.00,,,0.00,124.85,,2013-07-06 15:50:00,
2013-07-06 08:55:00,58.3,54.3,29.70,SSE,159,6.4,-999.0,87,0.00,,,0.00,162.45,,2013-07-06 15:55:00,
2013-07-06 09:10:00,58.7,54.3,29.70,SSW,199,6.1,-999.0,85,0.00,,,0.00,177.11,,2013-07-06 16:10:00,
2013-07-06 09:15:00,58.7,54.1,29.70,South,181,6.1,-999.0,85,0.00,,,0.00,239.13,,2013-07-06 16:15:00,
2013-07-06 09:20:00,59.6,54.7,29.70,SE,140,5.2,-999.0,84,0.00,,,0.00,331.81,,2013-07-06 16:20:00,
2013-07-06 09:25:00,59.6,53.7,29.70,SSE,164,6.1,-999.0,81,0.00,,,0.00,327.11,,2013-07-06 16:25:00,
2013-07-06 09:30:00,60.0,54.0,29.70,SSE,168,3.2,-999.0,81,0.00,,,0.00,257.63,,2013-07-06 16:30:00,
2013-07-06 09:35:00,59.1,52.4,29.70,South,169,12.1,-999.0,78,0.00,,,0.00,251.28,,2013-07-06 16:35:00,
2013-07-06 09:40:00,59.7,53.2,29.70,SSE,162,5.6,-999.0,79,0.00,,,0.00,385.90,,2013-07-06 16:40:00,
2013-07-06 09:55:00,62.3,52.9,29.70,SW,219,6.6,-999.0,71,0.00,,,0.00,418.86,,2013-07-06 16:55:00,
2013-07-06 10:05:00,59.9,49.5,29.70,South,174,12.3,-999.0,69,0.00,,,0.00,835.71,,2013-07-06 17:05:00,
2013-07-06 10:15:00,61.9,51.6,29.68,SW,225,7.4,-999.0,69,0.00,,,0.00,813.92,,2013-07-06 17:15:00,
2013-07-06 10:20:00,62.7,50.4,29.69,South,187,6.9,-999.0,64,0.00,,,0.00,757.75,,2013-07-06 17:20:00,
2013-07-06 10:25:00,64.5,53.4,29.69,South,185,6.1,-999.0,67,0.00,,,0.00,609.34,,2013-07-06 17:25:00,
2013-07-06 10:40:00,62.4,50.5,29.69,SSW,211,8.0,-999.0,65,0.00,,,0.00,718.68,,2013-07-06 17:40:00,
2013-07-06 10:45:00,62.3,49.7,29.69,SSW,193,7.4,-999.0,63,0.00,,,0.00,744.38,,2013-07-06 17:45:00,
2013-07-06 10:50:00,61.9,49.1,29.69,WNW,303,15.3,-999.0,63,0.00,,,0.00,603.60,,2013-07-06 17:50:00,
2013-07-06 10:55:00,62.5,50.4,29.69,SSW,213,8.5,-999.0,64,0.00,,,0.00,740.42,,2013-07-06 17:55:00,
2013-07-06 11:00:00,62.0,49.6,29.70,South,185,11.9,-999.0,64,0.00,,,0.00,678.51,,2013-07-06 18:00:00,
2013-07-06 11:05:00,62.9,51.9,29.70,SSE,163,5.2,-999.0,67,0.00,,,0.00,768.19,,2013-07-06 18:05:00,
2013-07-06 11:15:00,63.5,50.4,29.70,SSW,192,9.7,-999.0,62,0.00,,,0.00,780.95,,2013-07-06 18:15:00,
2013-07-06 11:20:00,62.8,49.1,29.69,WSW,240,8.8,-999.0,61,0.00,,,0.00,777.53,,2013-07-06 18:20:00,
2013-07-06 11:25:00,64.4,51.1,29.69,SSW,197,7.3,-999.0,62,0.00,,,0.00,786.57,,2013-07-06 18:25:00,
2013-07-06 11:30:00,63.6,50.3,29.70,South,181,8.0,-999.0,62,0.00,,,0.00,799.51,,2013-07-06 18:30:00,
2013-07-06 11:40:00,62.1,48.2,29.70,SSW,202,10.9,-999.0,60,0.00,,,0.00,812.09,,2013-07-06 18:40:00,
2013-07-06 11:45:00,63.4,49.8,29.69,South,180,3.9,-999.0,61,0.00,,,0.00,821.80,,2013-07-06 18:45:00,
2013-07-06 11:50:00,63.9,50.6,29.69,WNW,298,7.4,-999.0,62,0.00,,,0.00,807.27,,2013-07-06 18:50:00,
2013-07-06 11:55:00,63.2,49.6,29.69,SSW,200,7.8,-999.0,61,0.00,,,0.00,820.76,,2013-07-06 18:55:00,
2013-07-06 12:00:00,63.8,49.3,29.70,SSE,152,7.6,-999.0,59,0.00,,,0.00,830.28,,2013-07-06 19:00:00,
2013-07-06 12:05:00,63.1,49.2,29.70,SSW,208,14.1,-999.0,60,0.00,,,0.00,797.07,,2013-07-06 19:05:00,
2013-07-06 12:11:00,62.4,50.6,29.69,SSW,202,5.8,-999.0,65,0.00,,,0.00,885.96,,2013-07-06 19:11:00,
2013-07-06 12:25:00,64.7,50.7,29.70,SSE,148,9.3,-999.0,61,0.00,,,0.00,839.38,,2013-07-06 19:25:00,
2013-07-06 12:31:00,63.4,49.2,29.69,SW,233,11.9,-999.0,60,0.00,,,0.00,844.93,,2013-07-06 19:31:00,
2013-07-06 12:41:00,63.1,48.7,29.69,WSW,241,8.1,-999.0,59,0.00,,,0.00,842.55,,2013-07-06 19:41:00,
2013-07-06 12:55:00,62.7,49.4,29.69,SSW,210,11.1,-999.0,62,0.00,,,0.00,860.32,,2013-07-06 19:55:00,
2013-07-06 13:01:00,63.2,48.8,29.69,South,176,7.1,-999.0,59,0.00,,,0.00,852.75,,2013-07-06 20:01:00,
2013-07-06 13:10:00,61.9,48.7,29.69,South,180,14.3,-999.0,62,0.00,,,0.00,850.37,,2013-07-06 20:10:00,
2013-07-06 13:15:00,63.3,49.5,29.69,South,190,11.6,-999.0,61,0.00,,,0.00,850.18,,2013-07-06 20:15:00,
2013-07-06 13:20:00,63.5,49.4,29.68,South,188,7.1,-999.0,60,0.00,,,0.00,855.86,,2013-07-06 20:20:00,
2013-07-06 13:25:00,64.8,51.6,29.69,SW,220,8.0,-999.0,62,0.00,,,0.00,851.53,,2013-07-06 20:25:00,
2013-07-06 13:35:00,63.5,47.8,29.69,SW,219,8.8,-999.0,57,0.00,,,0.00,944.32,,2013-07-06 20:35:00,
2013-07-06 13:40:00,64.3,50.1,29.69,SW,227,5.4,-999.0,60,0.00,,,0.00,710.44,,2013-07-06 20:40:00,
2013-07-06 13:45:00,63.3,48.5,29.69,SSW,205,7.6,-999.0,58,0.00,,,0.00,790.48,,2013-07-06 20:45:00,
2013-07-06 13:50:00,61.9,47.7,29.69,SW,229,13.8,-999.0,59,0.00,,,0.00,911.17,,2013-07-06 20:50:00,
2013-07-06 13:55:00,62.6,48.4,29.68,South,191,11.1,-999.0,60,0.00,,,0.00,918.13,,2013-07-06 20:55:00,
2013-07-06 14:05:00,62.7,49.7,29.68,South,189,4.2,-999.0,62,0.00,,,0.00,688.65,,2013-07-06 21:05:00,
2013-07-06 14:10:00,62.0,47.5,29.68,WSW,241,7.6,-999.0,59,0.00,,,0.00,906.11,,2013-07-06 21:10:00,
2013-07-06 14:35:00,63.1,50.1,29.67,SW,227,6.6,-999.0,62,0.00,,,0.00,819.05,,2013-07-06 21:35:00,
2013-07-06 14:40:00,64.6,51.0,29.68,SSW,206,8.5,-999.0,61,0.00,,,0.00,795.67,,2013-07-06 21:40:00,
2013-07-06 14:45:00,62.5,48.9,29.67,SW,215,11.4,-999.0,61,0.00,,,0.00,800.00,,2013-07-06 21:45:00,
2013-07-06 14:50:00,62.4,49.2,29.67,South,175,10.9,-999.0,62,0.00,,,0.00,830.53,,2013-07-06 21:50:00,
2013-07-06 14:55:00,61.6,47.6,29.67,SW,214,15.2,-999.0,60,0.00,,,0.00,795.30,,2013-07-06 21:55:00,
2013-07-06 15:00:00,63.6,50.2,29.67,West,268,8.3,-999.0,62,0.00,,,0.00,774.36,,2013-07-06 22:00:00,
2013-07-06 15:05:00,63.5,48.3,29.67,WSW,253,9.0,-999.0,58,0.00,,,0.00,793.41,,2013-07-06 22:05:00,
2013-07-06 15:16:00,64.4,51.9,29.66,West,263,4.5,-999.0,64,0.00,,,0.00,825.46,,2013-07-06 22:16:00,
2013-07-06 15:30:00,62.5,49.8,29.66,WSW,239,10.0,-999.0,63,0.00,,,0.00,711.84,,2013-07-06 22:30:00,
2013-07-06 15:35:00,63.0,50.2,29.66,ESE,110,6.9,-999.0,63,0.00,,,0.00,726.74,,2013-07-06 22:35:00,
2013-07-06 15:45:00,61.7,50.1,29.66,SSW,197,11.1,-999.0,66,0.00,,,0.00,459.16,,2013-07-06 22:45:00,
2013-07-06 15:50:00,61.5,50.8,29.66,WSW,237,9.0,-999.0,68,0.00,,,0.00,721.37,,2013-07-06 22:50:00,
2013-07-06 15:55:00,60.5,48.3,29.66,SW,226,12.1,-999.0,64,0.00,,,0.00,394.63,,2013-07-06 22:55:00,
2013-07-06 16:00:00,60.6,49.2,29.66,South,181,8.7,-999.0,66,0.00,,,0.00,437.79,,2013-07-06 23:00:00,
2013-07-06 16:15:00,61.2,51.1,29.66,SE,131,4.2,-999.0,69,0.00,,,0.00,389.93,,2013-07-06 23:15:00,
2013-07-06 16:21:00,60.1,49.7,29.66,WSW,249,12.3,-999.0,69,0.00,,,0.00,523.02,,2013-07-06 23:21:00,
2013-07-06 16:35:00,59.3,49.5,29.65,SSW,212,11.9,-999.0,70,0.00,,,0.00,523.14,,2013-07-06 23:35:00,
2013-07-06 16:41:00,61.0,51.7,29.65,South,180,5.1,-999.0,71,0.00,,,0.00,366.54,,2013-07-06 23:41:00,
2013-07-06 16:50:00,59.9,51.3,29.66,SW,233,5.2,-999.0,73,0.00,,,0.00,361.42,,2013-07-06 23:50:00,
2013-07-06 16:55:00,59.3,50.3,29.65,SW,216,12.1,-999.0,72,0.00,,,0.00,330.65,,2013-07-06 23:55:00,
2013-07-06 17:10:00,58.3,50.9,29.65,South,178,14.5,-999.0,76,0.00,,,0.00,221.25,,2013-07-07 00:10:00,
2013-07-06 17:20:00,58.3,52.0,29.66,SSW,211,10.7,-999.0,80,0.00,,,0.00,188.52,,2013-07-07 00:20:00,
2013-07-06 17:40:00,59.4,53.0,29.65,South,185,4.5,-999.0,79,0.00,,,0.00,159.83,,2013-07-07 00:40:00,
2013-07-06 17:45:00,58.5,51.8,29.65,SSW,193,6.8,-999.0,78,0.00,,,0.00,161.42,,2013-07-07 00:45:00,
2013-07-06 17:50:00,58.5,51.9,29.65,WSW,257,9.0,-999.0,79,0.00,,,0.00,138.03,,2013-07-07 00:50:00,
2013-07-06 18:00:00,58.4,51.5,29.64,SSW,207,7.8,-999.0,78,0.00,,,0.00,187.73,,2013-07-07 01:00:00,
2013-07-06 18:05:00,58.3,51.6,29.64,SW,230,10.5,-999.0,78,0.00,,,0.00,175.09,,2013-07-07 01:05:00,
2013-07-06 18:11:00,58.4,51.6,29.64,WSW,248,13.4,-999.0,78,0.00,,,0.00,159.95,,2013-07-07 01:11:00,
2013-07-06 18:25:00,59.0,52.0,29.64,North,351,11.1,-999.0,77,0.00,,,0.00,148.72,,2013-07-07 01:25:00,
2013-07-06 18:30:00,58.0,51.3,29.64,SSW,196,9.2,-999.0,78,0.00,,,0.00,118.19,,2013-07-07 01:30:00,
2013-07-06 18:40:00,58.0,52.2,29.64,SW,230,10.9,-999.0,81,0.00,,,0.00,104.58,,2013-07-07 01:40:00,
2013-07-06 18:45:00,57.8,52.1,29.64,SW,230,9.0,-999.0,81,0.00,,,0.00,103.54,,2013-07-07 01:45:00,
2013-07-06 18:55:00,58.1,52.6,29.64,SW,227,9.2,-999.0,82,0.00,,,0.00,77.05,,2013-07-07 01:55:00,
2013-07-06 19:05:00,58.0,53.0,29.64,South,184,11.2,-999.0,83,0.00,,,0.00,84.68,,2013-07-07 02:05:00,
2013-07-06 19:11:00,58.1,53.3,29.64,SW,223,7.6,-999.0,84,0.00,,,0.00,69.35,,2013-07-07 02:11:00,
2013-07-06 19:25:00,57.5,53.1,29.65,WSW,240,11.2,-999.0,85,0.00,,,0.00,45.67,,2013-07-07 02:25:00,
2013-07-06 19:30:00,57.5,53.4,29.65,SW,222,5.2,-999.0,86,0.00,,,0.00,36.45,,2013-07-07 02:30:00,
2013-07-06 19:35:00,57.2,53.2,29.64,SSW,193,8.1,-999.0,86,0.00,,,0.00,31.50,,2013-07-07 02:35:00,
2013-07-06 19:40:00,57.2,53.5,29.63,SSW,209,12.4,-999.0,87,0.00,,,0.00,27.53,,2013-07-07 02:40:00,
2013-07-06 19:45:00,57.3,53.8,29.64,WNW,295,5.6,-999.0,88,0.00,,,0.00,25.40,,2013-07-07 02:45:00,
2013-07-06 19:50:00,57.4,53.9,29.64,SW,236,8.5,-999.0,88,0.00,,,0.00,21.61,,2013-07-07 02:50:00,
2013-07-06 20:00:00,57.3,53.9,29.63,SW,235,11.1,-999.0,88,0.00,,,0.00,18.80,,2013-07-07 03:00:00,
2013-07-06 20:05:00,57.2,53.9,29.64,SW,223,8.5,-999.0,89,0.00,,,0.00,10.87,,2013-07-07 03:05:00,
2013-07-06 20:10:00,57.4,54.2,29.65,SW,232,3.4,-999.0,89,0.00,,,0.00,9.58,,2013-07-07 03:10:00,
2013-07-06 20:15:00,57.2,53.9,29.64,WSW,239,13.6,-999.0,89,0.00,,,0.00,8.61,,2013-07-07 03:15:00,
2013-07-06 20:55:00,57.5,54.8,29.66,WSW,250,2.5,-999.0,91,0.00,,,0.00,0.24,,2013-07-07 03:55:00,
2013-07-06 21:01:00,57.0,54.4,29.66,WSW,253,4.9,-999.0,91,0.00,,,0.00,1.47,,2013-07-07 04:01:00,
2013-07-06 21:05:00,57.0,54.4,29.65,South,186,6.9,-999.0,91,0.00,,,0.00,0.00,,2013-07-07 04:05:00,
2013-07-06 21:10:00,57.0,54.5,29.65,SSW,211,7.1,-999.0,91,0.00,,,0.00,0.24,,2013-07-07 04:10:00,
2013-07-06 21:15:00,56.9,54.4,29.67,South,185,7.6,-999.0,91,0.00,,,0.00,0.00,,2013-07-07 04:15:00,
2013-07-06 21:20:00,57.2,54.8,29.67,NNW,333,3.7,-999.0,92,0.00,,,0.00,0.00,,2013-07-07 04:20:00,
2013-07-06 21:25:00,57.0,54.6,29.67,WSW,248,7.4,-999.0,92,0.00,,,0.00,0.24,,2013-07-07 04:25:00,
2013-07-06 21:30:00,56.6,54.4,29.67,South,187,9.3,-999.0,92,0.00,,,0.00,0.73,,2013-07-07 04:30:00,
2013-07-06 21:35:00,56.9,54.7,29.67,SW,236,4.9,-999.0,92,0.00,,,0.00,0.00,,2013-07-07 04:35:00,
2013-07-06 21:40:00,57.0,54.7,29.67,SSW,205,6.6,-999.0,92,0.00,,,0.00,0.00,,2013-07-07 04:40:00,
2013-07-06 21:45:00,57.0,54.9,29.67,WSW,249,3.7,-999.0,92,0.00,,,0.00,0.00,,2013-07-07 04:45:00,
2013-07-06 21:50:00,57.1,54.9,29.67,SSW,212,9.7,-999.0,92,0.00,,,0.00,0.00,,2013-07-07 04:50:00,
2013-07-06 22:00:00,57.2,55.1,29.67,WNW,290,5.1,-999.0,93,0.00,,,0.00,0.00,,2013-07-07 05:00:00,
2013-07-06 22:10:00,57.3,55.2,29.68,SSW,201,5.4,-999.0,93,0.00,,,0.00,0.49,,2013-07-07 05:10:00,
2013-07-06 22:20:00,57.3,55.2,29.69,SSW,206,6.8,-999.0,93,0.00,,,0.00,1.22,,2013-07-07 05:20:00,
2013-07-06 22:25:00,57.4,55.3,29.68,WSW,255,6.6,-999.0,93,0.00,,,0.00,0.00,,2013-07-07 05:25:00,
2013-07-06 22:30:00,57.3,55.2,29.69,SW,219,10.5,-999.0,93,0.00,,,0.00,0.00,,2013-07-07 05:30:00,
2013-07-06 22:35:00,57.4,55.3,29.68,West,262,5.1,-999.0,93,0.00,,,0.00,0.37,,2013-07-07 05:35:00,
2013-07-06 22:40:00,57.5,55.4,29.67,SW,217,3.2,-999.0,93,0.00,,,0.00,0.49,,2013-07-07 05:40:00,
2013-07-06 22:50:00,57.7,55.6,29.68,SSW,203,3.0,-999.0,93,0.00,,,0.00,0.00,,2013-07-07 05:50:00,
2013-07-06 22:55:00,57.6,55.4,29.68,South,184,7.6,-999.0,92,0.00,,,0.00,0.18,,2013-07-07 05:55:00,
2013-07-06 23:00:00,57.8,55.7,29.68,SSW,213,2.8,-999.0,93,0.00,,,0.00,0.00,,2013-07-07 06:00:00,
2013-07-06 23:05:00,57.6,55.4,29.68,SW,214,9.3,-999.0,92,0.00,,,0.00,0.00,,2013-07-07 06:05:00,
2013-07-06 23:10:00,57.6,55.5,29.69,SW,232,5.2,-999.0,93,0.00,,,0.00,0.00,,2013-07-07 06:10:00,
2013-07-06 23:15:00,57.8,55.7,29.67,SSE,164,4.7,-999.0,93,0.00,,,0.00,0.24,,2013-07-07 06:15:00,
2013-07-06 23:20:00,57.8,55.6,29.68,ESE,118,5.2,-999.0,92,0.00,,,0.00,0.00,,2013-07-07 06:20:00,
2013-07-06 23:25:00,57.8,55.7,29.68,SSW,209,3.7,-999.0,93,0.00,,,0.00,0.24,,2013-07-07 06:25:00,
2013-07-06 23:30:00,57.9,55.8,29.68,SW,224,7.8,-999.0,93,0.00,,,0.00,1.34,,2013-07-07 06:30:00,
2013-07-06 23:35:00,58.2,56.1,29.68,WNW,297,7.1,-999.0,93,0.00,,,0.00,0.00,,2013-07-07 06:35:00,
2013-07-06 23:40:00,58.3,56.2,29.67,NNW,332,8.3,-999.0,92,0.00,,,0.00,0.98,,2013-07-07 06:40:00,
2013-07-06 23:45:00,58.2,55.9,29.68,SE,146,8.5,-999.0,92,0.00,,,0.00,0.61,,2013-07-07 06:45:00,
2013-07-06 23:50:00,58.3,56.0,29.68,WSW,239,12.1,-999.0,92,0.00,,,0.00,0.24,,2013-07-07 06:50:00,
2013-07-06 23:55:00,58.3,56.1,29.68,SSW,205,5.4,-999.0,92,0.00,,,0.00,0.12,,2013-07-07 06:55:00,